Terminal Aerodrome Forecast
Issued by NWS

Current Version | Previous Version | Text Only | Print | Product List | Glossary Off
Versions: 1 2 3 4 5 6 7 8 9 10 11 12 13 14 15 16 17

000
FTUS44 KCRP 271720
TAFLRD
TAF
KLRD 271720Z 2718/2818 14014G20KT P6SM SCT250
     FM280800 14011KT P6SM FEW008 SCT012
      TEMPO 2810/2814 BKN011
     FM281400 17010KT P6SM SCT020=

USA.gov is the U.S. government's official web portal to all federal, state and local government web resources and services.